THY9W EGKK-LTFM
Flight info
| Callsign | THY9W |
|---|---|
| Flight time | 2h 58m |
| Altitude | 37000 |
| Route | ODVIK Y311 DVR UL9 KONAN UL607 KOK DCT REMBA DCT SPI DCT MATUG DCT BOMBI DCT TENLO DCT LAMSI DCT ARSIN DCT GITAS DCT MAVIR DCT GOVIN DCT PADGU DCT OVDOT DCT NULGO DCT TIMUR L606 GASRU T390 RILEX |
| Aircraft | B77W/H-SDE1E2E3FGHIJ2J3J4J5M1RWXY/LB1D1 |
Departure
| Time | 2026-05-06 12:32 |
|---|---|
| Airport | London Gatwick Airport (EGKK) |
Arrival
| Time | 2026-05-06 15:30 |
|---|---|
| Airport | İstanbul Airport (LTFM) |
| Time | Latitude | Longitude | Altitude | Speed | Heading |
|---|---|---|---|---|---|
| 2026-05-06 12:00 | 51.15875 | -0.16926 | 211 ft | 0 kts | 130° |
| 2026-05-06 12:15 | 51.15875 | -0.16927 | 211 ft | 1 kts | 130° |
| 2026-05-06 12:15 | 51.15882 | -0.16940 | 221 ft | 3 kts | 117° |
| 2026-05-06 12:16 | 51.15887 | -0.16958 | 218 ft | 3 kts | 82° |
| 2026-05-06 12:16 | 51.15887 | -0.16962 | 218 ft | 1 kts | 77° |
| 2026-05-06 12:16 | 51.15886 | -0.16982 | 225 ft | 3 kts | 109° |
| 2026-05-06 12:16 | 51.15902 | -0.17007 | 225 ft | 3 kts | 172° |
| 2026-05-06 12:17 | 51.15925 | -0.17004 | 222 ft | 3 kts | 201° |
| 2026-05-06 12:17 | 51.15945 | -0.16986 | 223 ft | 3 kts | 214° |
| 2026-05-06 12:17 | 51.15958 | -0.16967 | 218 ft | 0 kts | 237° |
| 2026-05-06 12:21 | 51.15930 | -0.17019 | 222 ft | 11 kts | 225° |
| 2026-05-06 12:21 | 51.15863 | -0.17078 | 216 ft | 3 kts | 195° |
| 2026-05-06 12:22 | 51.15833 | -0.17099 | 220 ft | 7 kts | 214° |
| 2026-05-06 12:22 | 51.15807 | -0.17175 | 220 ft | 9 kts | 253° |
| 2026-05-06 12:22 | 51.15792 | -0.17289 | 217 ft | 12 kts | 258° |
| 2026-05-06 12:22 | 51.15775 | -0.17413 | 215 ft | 14 kts | 257° |
| 2026-05-06 12:23 | 51.15752 | -0.17583 | 217 ft | 17 kts | 258° |
| 2026-05-06 12:23 | 51.15725 | -0.17781 | 211 ft | 19 kts | 258° |
| 2026-05-06 12:23 | 51.15695 | -0.18000 | 217 ft | 21 kts | 258° |
| 2026-05-06 12:23 | 51.15670 | -0.18174 | 219 ft | 10 kts | 257° |
| 2026-05-06 12:24 | 51.15655 | -0.18286 | 216 ft | 10 kts | 257° |
| 2026-05-06 12:24 | 51.15609 | -0.18352 | 216 ft | 10 kts | 189° |
| 2026-05-06 12:24 | 51.15533 | -0.18330 | 213 ft | 13 kts | 168° |
| 2026-05-06 12:24 | 51.15437 | -0.18297 | 219 ft | 16 kts | 168° |
| 2026-05-06 12:25 | 51.15322 | -0.18257 | 218 ft | 15 kts | 167° |
| 2026-05-06 12:25 | 51.15251 | -0.18232 | 217 ft | 11 kts | 168° |
| 2026-05-06 12:25 | 51.15194 | -0.18285 | 217 ft | 10 kts | 251° |
| 2026-05-06 12:25 | 51.15175 | -0.18413 | 218 ft | 13 kts | 257° |
| 2026-05-06 12:26 | 51.15155 | -0.18562 | 214 ft | 16 kts | 258° |
| 2026-05-06 12:26 | 51.15130 | -0.18745 | 219 ft | 18 kts | 258° |
| 2026-05-06 12:26 | 51.15101 | -0.18953 | 216 ft | 20 kts | 257° |
| 2026-05-06 12:26 | 51.15070 | -0.19182 | 214 ft | 22 kts | 257° |
| 2026-05-06 12:27 | 51.15036 | -0.19432 | 217 ft | 24 kts | 257° |
| 2026-05-06 12:27 | 51.15008 | -0.19626 | 217 ft | 15 kts | 257° |
| 2026-05-06 12:27 | 51.14983 | -0.19806 | 219 ft | 18 kts | 257° |
| 2026-05-06 12:27 | 51.14955 | -0.20014 | 218 ft | 21 kts | 257° |
| 2026-05-06 12:28 | 51.14922 | -0.20248 | 211 ft | 23 kts | 258° |
| 2026-05-06 12:28 | 51.14887 | -0.20505 | 220 ft | 25 kts | 258° |
| 2026-05-06 12:28 | 51.14849 | -0.20776 | 214 ft | 22 kts | 257° |
| 2026-05-06 12:28 | 51.14824 | -0.20959 | 218 ft | 14 kts | 257° |
| 2026-05-06 12:29 | 51.14805 | -0.21087 | 217 ft | 12 kts | 257° |
| 2026-05-06 12:29 | 51.14777 | -0.21232 | 211 ft | 15 kts | 257° |
| 2026-05-06 12:29 | 51.14759 | -0.21357 | 215 ft | 10 kts | 252° |
| 2026-05-06 12:29 | 51.14702 | -0.21399 | 213 ft | 8 kts | 173° |
| 2026-05-06 12:30 | 51.14667 | -0.21363 | 218 ft | 6 kts | 134° |
| 2026-05-06 12:30 | 51.14642 | -0.21339 | 219 ft | 0 kts | 158° |
| 2026-05-06 12:30 | 51.14636 | -0.21336 | 217 ft | 3 kts | 162° |
| 2026-05-06 12:30 | 51.14595 | -0.21321 | 214 ft | 8 kts | 166° |
| 2026-05-06 12:31 | 51.14541 | -0.21271 | 219 ft | 10 kts | 134° |
| 2026-05-06 12:31 | 51.14524 | -0.21156 | 217 ft | 12 kts | 80° |
| 2026-05-06 12:31 | 51.14544 | -0.21006 | 220 ft | 25 kts | 77° |
| 2026-05-06 12:31 | 51.14636 | -0.20342 | 216 ft | 97 kts | 78° |
| 2026-05-06 12:32 | 51.14826 | -0.18950 | 237 ft | 157 kts | 75° |
| 2026-05-06 12:32 | 51.15042 | -0.17204 | 952 ft | 161 kts | 75° |
| 2026-05-06 12:32 | 51.15277 | -0.15401 | 1707 ft | 177 kts | 75° |
| 2026-05-06 12:32 | 51.15533 | -0.13315 | 2114 ft | 208 kts | 75° |
| 2026-05-06 12:33 | 51.15827 | -0.10911 | 2513 ft | 235 kts | 75° |
| 2026-05-06 12:33 | 51.16173 | -0.08232 | 3101 ft | 255 kts | 75° |
| 2026-05-06 12:33 | 51.16572 | -0.05441 | 4022 ft | 261 kts | 73° |
| 2026-05-06 12:33 | 51.16876 | -0.02559 | 4933 ft | 268 kts | 85° |
| 2026-05-06 12:34 | 51.16785 | 0.00430 | 5914 ft | 273 kts | 90° |
| 2026-05-06 12:34 | 51.16685 | 0.03497 | 6736 ft | 282 kts | 89° |
| 2026-05-06 12:34 | 51.16628 | 0.06645 | 7702 ft | 284 kts | 89° |
| 2026-05-06 12:34 | 51.16572 | 0.09780 | 8812 ft | 285 kts | 89° |
| 2026-05-06 12:35 | 51.16514 | 0.12961 | 9832 ft | 288 kts | 89° |
| 2026-05-06 12:35 | 51.16489 | 0.16167 | 10776 ft | 292 kts | 88° |
| 2026-05-06 12:35 | 51.16496 | 0.19430 | 11666 ft | 298 kts | 88° |
| 2026-05-06 12:35 | 51.16517 | 0.22534 | 12504 ft | 302 kts | 88° |
| 2026-05-06 12:36 | 51.16540 | 0.25985 | 13433 ft | 308 kts | 88° |
| 2026-05-06 12:36 | 51.16565 | 0.29421 | 14266 ft | 312 kts | 88° |
| 2026-05-06 12:36 | 51.16588 | 0.32912 | 15042 ft | 318 kts | 88° |
| 2026-05-06 12:36 | 51.16610 | 0.36451 | 15856 ft | 322 kts | 89° |
| 2026-05-06 12:37 | 51.16623 | 0.40037 | 16649 ft | 326 kts | 89° |
| 2026-05-06 12:37 | 51.16629 | 0.43685 | 17439 ft | 332 kts | 89° |
| 2026-05-06 12:37 | 51.16632 | 0.47433 | 17934 ft | 347 kts | 89° |
| 2026-05-06 12:37 | 51.16632 | 0.51406 | 18056 ft | 372 kts | 89° |
| 2026-05-06 12:38 | 51.16635 | 0.55682 | 18062 ft | 400 kts | 90° |
| 2026-05-06 12:38 | 51.16630 | 0.58680 | 18048 ft | 417 kts | 90° |
| 2026-05-06 12:38 | 51.16614 | 0.63433 | 18037 ft | 440 kts | 90° |
| 2026-05-06 12:38 | 51.16596 | 0.68415 | 18033 ft | 461 kts | 90° |
| 2026-05-06 12:39 | 51.16578 | 0.73545 | 17994 ft | 450 kts | 90° |
| 2026-05-06 12:39 | 51.16561 | 0.78376 | 18022 ft | 425 kts | 90° |
| 2026-05-06 12:39 | 51.16546 | 0.82952 | 18299 ft | 404 kts | 90° |
| 2026-05-06 12:39 | 51.16530 | 0.87447 | 18392 ft | 408 kts | 90° |
| 2026-05-06 12:40 | 51.16514 | 0.91991 | 18784 ft | 411 kts | 90° |
| 2026-05-06 12:40 | 51.16496 | 0.96548 | 19257 ft | 412 kts | 90° |
| 2026-05-06 12:40 | 51.16477 | 1.01132 | 19681 ft | 415 kts | 90° |
| 2026-05-06 12:40 | 51.16456 | 1.05733 | 20095 ft | 417 kts | 91° |
| 2026-05-06 12:41 | 51.16432 | 1.10374 | 20518 ft | 419 kts | 91° |
| 2026-05-06 12:41 | 51.16406 | 1.15030 | 20931 ft | 422 kts | 91° |
| 2026-05-06 12:41 | 51.16379 | 1.19714 | 21326 ft | 424 kts | 91° |
| 2026-05-06 12:41 | 51.16349 | 1.24425 | 21729 ft | 426 kts | 91° |
| 2026-05-06 12:42 | 51.16317 | 1.29163 | 22133 ft | 429 kts | 91° |
| 2026-05-06 12:42 | 51.16282 | 1.33922 | 22497 ft | 431 kts | 91° |
| 2026-05-06 12:42 | 51.16238 | 1.38711 | 22878 ft | 433 kts | 92° |
| 2026-05-06 12:42 | 51.16085 | 1.43517 | 23257 ft | 435 kts | 95° |
| 2026-05-06 12:43 | 51.15844 | 1.48341 | 23610 ft | 438 kts | 96° |
| 2026-05-06 12:43 | 51.15565 | 1.53176 | 23925 ft | 440 kts | 96° |
| 2026-05-06 12:43 | 51.15279 | 1.58033 | 24245 ft | 442 kts | 96° |
| 2026-05-06 12:43 | 51.15000 | 1.62920 | 24569 ft | 443 kts | 96° |
| 2026-05-06 12:44 | 51.14733 | 1.67818 | 24904 ft | 445 kts | 96° |
| 2026-05-06 12:44 | 51.14474 | 1.72734 | 25243 ft | 447 kts | 95° |
| 2026-05-06 12:44 | 51.14222 | 1.77685 | 25586 ft | 449 kts | 95° |
| 2026-05-06 12:44 | 51.13971 | 1.82651 | 25959 ft | 451 kts | 95° |
| 2026-05-06 12:45 | 51.13719 | 1.87636 | 26335 ft | 453 kts | 95° |
| 2026-05-06 12:45 | 51.13463 | 1.92641 | 26725 ft | 455 kts | 95° |
| 2026-05-06 12:45 | 51.12936 | 2.02719 | 27557 ft | 459 kts | 95° |
| 2026-05-06 12:46 | 51.12670 | 2.07789 | 27996 ft | 461 kts | 95° |
| 2026-05-06 12:46 | 51.12402 | 2.12878 | 28440 ft | 463 kts | 95° |
| 2026-05-06 12:46 | 51.12131 | 2.17930 | 28871 ft | 465 kts | 95° |
| 2026-05-06 12:46 | 51.11852 | 2.23072 | 29344 ft | 467 kts | 96° |
| 2026-05-06 12:47 | 51.11565 | 2.28306 | 29790 ft | 470 kts | 96° |
| 2026-05-06 12:47 | 51.11281 | 2.33431 | 30209 ft | 472 kts | 96° |
| 2026-05-06 12:47 | 51.10989 | 2.38646 | 30577 ft | 475 kts | 96° |
| 2026-05-06 12:47 | 51.10695 | 2.43896 | 30943 ft | 477 kts | 96° |
| 2026-05-06 12:48 | 51.10398 | 2.49163 | 31296 ft | 480 kts | 96° |
| 2026-05-06 12:48 | 51.10096 | 2.54461 | 31653 ft | 482 kts | 96° |
| 2026-05-06 12:48 | 51.09788 | 2.59779 | 31999 ft | 484 kts | 96° |
| 2026-05-06 12:48 | 51.09331 | 2.65087 | 32279 ft | 486 kts | 102° |
| 2026-05-06 12:49 | 51.08547 | 2.70317 | 32603 ft | 487 kts | 105° |
| 2026-05-06 12:49 | 51.07664 | 2.75542 | 32959 ft | 488 kts | 106° |
| 2026-05-06 12:49 | 51.06736 | 2.80719 | 33447 ft | 487 kts | 107° |
| 2026-05-06 12:49 | 51.05786 | 2.85885 | 33938 ft | 485 kts | 107° |
| 2026-05-06 12:50 | 51.04832 | 2.91019 | 34312 ft | 485 kts | 108° |
| 2026-05-06 12:50 | 51.03875 | 2.96161 | 34612 ft | 486 kts | 108° |
| 2026-05-06 12:50 | 51.02918 | 3.01316 | 34912 ft | 487 kts | 108° |
| 2026-05-06 12:50 | 51.01965 | 3.06480 | 35212 ft | 488 kts | 108° |
| 2026-05-06 12:51 | 51.01009 | 3.11655 | 35512 ft | 488 kts | 108° |
| 2026-05-06 12:51 | 51.00052 | 3.16834 | 35795 ft | 489 kts | 108° |
| 2026-05-06 12:51 | 50.99094 | 3.22009 | 36099 ft | 490 kts | 108° |
| 2026-05-06 12:51 | 50.98129 | 3.27205 | 36388 ft | 491 kts | 108° |
| 2026-05-06 12:52 | 50.97162 | 3.32400 | 36683 ft | 491 kts | 108° |
| 2026-05-06 12:52 | 50.96189 | 3.37604 | 36972 ft | 492 kts | 108° |
| 2026-05-06 12:52 | 50.95214 | 3.42807 | 37262 ft | 493 kts | 108° |
| 2026-05-06 12:52 | 50.94236 | 3.48017 | 37545 ft | 494 kts | 108° |
| 2026-05-06 12:53 | 50.93253 | 3.53235 | 37812 ft | 495 kts | 108° |
| 2026-05-06 12:53 | 50.92265 | 3.58465 | 38085 ft | 495 kts | 108° |
| 2026-05-06 12:53 | 50.91275 | 3.63697 | 38351 ft | 496 kts | 108° |
| 2026-05-06 12:53 | 50.90282 | 3.68925 | 38601 ft | 497 kts | 109° |
| 2026-05-06 12:54 | 50.89283 | 3.74172 | 38799 ft | 497 kts | 109° |
| 2026-05-06 12:54 | 50.88282 | 3.79413 | 39004 ft | 497 kts | 109° |
| 2026-05-06 12:54 | 50.87280 | 3.84643 | 39221 ft | 497 kts | 109° |
| 2026-05-06 12:54 | 50.86273 | 3.89890 | 39428 ft | 498 kts | 109° |
| 2026-05-06 12:55 | 50.85264 | 3.95131 | 39615 ft | 498 kts | 109° |
| 2026-05-06 12:55 | 50.84253 | 4.00365 | 39811 ft | 498 kts | 109° |
| 2026-05-06 12:55 | 50.83238 | 4.05607 | 40000 ft | 498 kts | 109° |
| 2026-05-06 12:55 | 50.82219 | 4.10854 | 40183 ft | 498 kts | 109° |
| 2026-05-06 12:56 | 50.81200 | 4.16088 | 40359 ft | 498 kts | 109° |
| 2026-05-06 12:56 | 50.80176 | 4.21331 | 40529 ft | 499 kts | 109° |
| 2026-05-06 12:56 | 50.79152 | 4.26563 | 40709 ft | 499 kts | 109° |
| 2026-05-06 12:56 | 50.78138 | 4.31729 | 40853 ft | 499 kts | 109° |
| 2026-05-06 12:57 | 50.77093 | 4.37039 | 40885 ft | 500 kts | 109° |
| 2026-05-06 12:57 | 50.75038 | 4.47437 | 40881 ft | 499 kts | 109° |
| 2026-05-06 12:58 | 50.72962 | 4.57886 | 40883 ft | 499 kts | 109° |
| 2026-05-06 12:58 | 50.70878 | 4.68318 | 40878 ft | 499 kts | 109° |
| 2026-05-06 12:59 | 50.68785 | 4.78737 | 40877 ft | 498 kts | 110° |
| 2026-05-06 12:59 | 50.66683 | 4.89152 | 40869 ft | 498 kts | 110° |
| 2026-05-06 13:00 | 50.64572 | 4.99548 | 40866 ft | 498 kts | 110° |
| 2026-05-06 13:00 | 50.62432 | 5.09933 | 40862 ft | 498 kts | 110° |
| 2026-05-06 13:01 | 50.60281 | 5.20315 | 40855 ft | 498 kts | 110° |
| 2026-05-06 13:01 | 50.58125 | 5.30681 | 40856 ft | 499 kts | 110° |
| 2026-05-06 13:02 | 50.55961 | 5.41045 | 40850 ft | 499 kts | 110° |
| 2026-05-06 13:02 | 50.53787 | 5.51404 | 40857 ft | 499 kts | 110° |
| 2026-05-06 13:03 | 50.51664 | 5.61798 | 40856 ft | 501 kts | 107° |
| 2026-05-06 13:03 | 50.50135 | 5.72474 | 40850 ft | 502 kts | 104° |
| 2026-05-06 13:04 | 50.48747 | 5.83219 | 40847 ft | 502 kts | 103° |
| 2026-05-06 13:04 | 50.47377 | 5.93945 | 40841 ft | 501 kts | 104° |
| 2026-05-06 13:05 | 50.45981 | 6.04669 | 40823 ft | 501 kts | 104° |
| 2026-05-06 13:05 | 50.44567 | 6.15367 | 40817 ft | 501 kts | 104° |
| 2026-05-06 13:06 | 50.43141 | 6.26050 | 40805 ft | 500 kts | 104° |
| 2026-05-06 13:06 | 50.41707 | 6.36722 | 40792 ft | 500 kts | 104° |
| 2026-05-06 13:07 | 50.40259 | 6.47379 | 40790 ft | 500 kts | 104° |
| 2026-05-06 13:07 | 50.38792 | 6.57952 | 40789 ft | 500 kts | 105° |
| 2026-05-06 13:08 | 50.37306 | 6.68593 | 40793 ft | 500 kts | 105° |
| 2026-05-06 13:08 | 50.35815 | 6.79215 | 40797 ft | 500 kts | 105° |
| 2026-05-06 13:09 | 50.34318 | 6.89827 | 40799 ft | 499 kts | 105° |
| 2026-05-06 13:09 | 50.32811 | 7.00440 | 40801 ft | 499 kts | 105° |
| 2026-05-06 13:10 | 50.31293 | 7.11050 | 40797 ft | 499 kts | 105° |
| 2026-05-06 13:10 | 50.29766 | 7.21644 | 40796 ft | 500 kts | 105° |
| 2026-05-06 13:11 | 50.28227 | 7.32251 | 40797 ft | 500 kts | 105° |
| 2026-05-06 13:11 | 50.26682 | 7.42830 | 40796 ft | 500 kts | 105° |
| 2026-05-06 13:12 | 50.25125 | 7.53415 | 40807 ft | 500 kts | 105° |
| 2026-05-06 13:12 | 50.23557 | 7.63999 | 40797 ft | 500 kts | 105° |
| 2026-05-06 13:13 | 50.21981 | 7.74572 | 40792 ft | 500 kts | 105° |
| 2026-05-06 13:13 | 50.20393 | 7.85147 | 40786 ft | 500 kts | 105° |
| 2026-05-06 13:14 | 50.18795 | 7.95722 | 40784 ft | 500 kts | 106° |
| 2026-05-06 13:14 | 50.17188 | 8.06286 | 40783 ft | 501 kts | 106° |
| 2026-05-06 13:15 | 50.15571 | 8.16844 | 40781 ft | 501 kts | 106° |
| 2026-05-06 13:15 | 50.13944 | 8.27398 | 40786 ft | 501 kts | 106° |
| 2026-05-06 13:16 | 50.12307 | 8.37950 | 40787 ft | 501 kts | 106° |
| 2026-05-06 13:16 | 50.10662 | 8.48480 | 40773 ft | 501 kts | 107° |
| 2026-05-06 13:17 | 50.09017 | 8.58944 | 40774 ft | 501 kts | 107° |
| 2026-05-06 13:17 | 50.07354 | 8.69462 | 40775 ft | 501 kts | 107° |
| 2026-05-06 13:18 | 50.05612 | 8.79956 | 40770 ft | 499 kts | 110° |
| 2026-05-06 13:18 | 50.03425 | 8.90176 | 40768 ft | 498 kts | 112° |
| 2026-05-06 13:19 | 50.01134 | 9.00340 | 40764 ft | 498 kts | 112° |
| 2026-05-06 13:19 | 49.98819 | 9.10472 | 40763 ft | 497 kts | 112° |
| 2026-05-06 13:20 | 49.96495 | 9.20601 | 40763 ft | 498 kts | 112° |
| 2026-05-06 13:20 | 49.94168 | 9.30711 | 40761 ft | 498 kts | 112° |
| 2026-05-06 13:21 | 49.91835 | 9.40830 | 40760 ft | 498 kts | 112° |
| 2026-05-06 13:21 | 49.89495 | 9.50944 | 40765 ft | 498 kts | 112° |
| 2026-05-06 13:22 | 49.87147 | 9.61049 | 40764 ft | 498 kts | 112° |
| 2026-05-06 13:22 | 49.84787 | 9.71153 | 40769 ft | 499 kts | 112° |
| 2026-05-06 13:23 | 49.82416 | 9.81258 | 40765 ft | 499 kts | 112° |
| 2026-05-06 13:23 | 49.80037 | 9.91351 | 40767 ft | 499 kts | 112° |
| 2026-05-06 13:24 | 49.77648 | 10.01440 | 40772 ft | 499 kts | 112° |
| 2026-05-06 13:24 | 49.75251 | 10.11517 | 40772 ft | 500 kts | 113° |
| 2026-05-06 13:25 | 49.73246 | 10.19906 | 40772 ft | 500 kts | 113° |
| 2026-05-06 13:25 | 49.70829 | 10.29979 | 40777 ft | 501 kts | 113° |
| 2026-05-06 13:26 | 49.68003 | 10.41699 | 40776 ft | 501 kts | 113° |
| 2026-05-06 13:26 | 49.65957 | 10.50145 | 40779 ft | 502 kts | 113° |
| 2026-05-06 13:27 | 49.63505 | 10.60222 | 40774 ft | 502 kts | 113° |
| 2026-05-06 13:27 | 49.61042 | 10.70300 | 40779 ft | 502 kts | 113° |
| 2026-05-06 13:28 | 49.58569 | 10.80369 | 40787 ft | 503 kts | 113° |
| 2026-05-06 13:28 | 49.56083 | 10.90449 | 40781 ft | 503 kts | 114° |
| 2026-05-06 13:29 | 49.53593 | 11.00509 | 40772 ft | 503 kts | 114° |
| 2026-05-06 13:29 | 49.50719 | 11.10283 | 40770 ft | 501 kts | 118° |
| 2026-05-06 13:30 | 49.47625 | 11.19881 | 40770 ft | 500 kts | 120° |
| 2026-05-06 13:30 | 49.44486 | 11.29411 | 40772 ft | 500 kts | 120° |
| 2026-05-06 13:31 | 49.41329 | 11.38932 | 40773 ft | 500 kts | 120° |
| 2026-05-06 13:31 | 49.38171 | 11.48431 | 40776 ft | 499 kts | 120° |
| 2026-05-06 13:32 | 49.35011 | 11.57909 | 40777 ft | 499 kts | 120° |
| 2026-05-06 13:32 | 49.31846 | 11.67371 | 40776 ft | 498 kts | 120° |
| 2026-05-06 13:33 | 49.28675 | 11.76814 | 40777 ft | 498 kts | 121° |
| 2026-05-06 13:33 | 49.25500 | 11.86231 | 40774 ft | 498 kts | 121° |
| 2026-05-06 13:34 | 49.22319 | 11.95635 | 40783 ft | 498 kts | 121° |
| 2026-05-06 13:34 | 49.19134 | 12.05017 | 40768 ft | 497 kts | 121° |
| 2026-05-06 13:35 | 49.15964 | 12.14321 | 40777 ft | 497 kts | 121° |
| 2026-05-06 13:35 | 49.12767 | 12.23668 | 40775 ft | 496 kts | 121° |
| 2026-05-06 13:36 | 49.09567 | 12.32990 | 40777 ft | 496 kts | 121° |
| 2026-05-06 13:36 | 49.06363 | 12.42291 | 40772 ft | 495 kts | 121° |
| 2026-05-06 13:37 | 49.03152 | 12.51579 | 40766 ft | 495 kts | 121° |
| 2026-05-06 13:37 | 48.99933 | 12.60851 | 40769 ft | 495 kts | 121° |
| 2026-05-06 13:38 | 48.96709 | 12.70108 | 40767 ft | 495 kts | 121° |
| 2026-05-06 13:38 | 48.93484 | 12.79336 | 40765 ft | 494 kts | 121° |
| 2026-05-06 13:39 | 48.90248 | 12.88561 | 40765 ft | 494 kts | 122° |
| 2026-05-06 13:39 | 48.87000 | 12.97787 | 40764 ft | 495 kts | 122° |
| 2026-05-06 13:40 | 48.83743 | 13.07006 | 40765 ft | 495 kts | 122° |
| 2026-05-06 13:40 | 48.80481 | 13.16209 | 40766 ft | 496 kts | 122° |
| 2026-05-06 13:41 | 48.77200 | 13.25430 | 40761 ft | 496 kts | 122° |
| 2026-05-06 13:41 | 48.73913 | 13.34634 | 40756 ft | 497 kts | 122° |
| 2026-05-06 13:42 | 48.70617 | 13.43835 | 40762 ft | 497 kts | 122° |
| 2026-05-06 13:42 | 48.67311 | 13.53030 | 40755 ft | 497 kts | 122° |
| 2026-05-06 13:43 | 48.64019 | 13.62233 | 40760 ft | 498 kts | 121° |
| 2026-05-06 13:43 | 48.60923 | 13.71607 | 40763 ft | 499 kts | 120° |
| 2026-05-06 13:44 | 48.57896 | 13.81051 | 40762 ft | 499 kts | 120° |
| 2026-05-06 13:44 | 48.54856 | 13.90483 | 40763 ft | 499 kts | 120° |
| 2026-05-06 13:45 | 48.51794 | 13.99883 | 40758 ft | 499 kts | 120° |
| 2026-05-06 13:45 | 48.47175 | 14.13954 | 40755 ft | 499 kts | 120° |
| 2026-05-06 13:46 | 48.44101 | 14.23274 | 40754 ft | 500 kts | 120° |
| 2026-05-06 13:46 | 48.41003 | 14.32637 | 40750 ft | 500 kts | 121° |
| 2026-05-06 13:47 | 48.37896 | 14.41996 | 40755 ft | 500 kts | 121° |
| 2026-05-06 13:47 | 48.34782 | 14.51342 | 40755 ft | 500 kts | 121° |
| 2026-05-06 13:48 | 48.31660 | 14.60680 | 40755 ft | 500 kts | 121° |
| 2026-05-06 13:48 | 48.28527 | 14.70012 | 40758 ft | 500 kts | 121° |
| 2026-05-06 13:49 | 48.25392 | 14.79317 | 40758 ft | 499 kts | 121° |
| 2026-05-06 13:49 | 48.22251 | 14.88608 | 40757 ft | 499 kts | 121° |
| 2026-05-06 13:50 | 48.19108 | 14.97877 | 40763 ft | 499 kts | 121° |
| 2026-05-06 13:50 | 48.15955 | 15.07130 | 40763 ft | 499 kts | 121° |
| 2026-05-06 13:51 | 48.12796 | 15.16367 | 40764 ft | 499 kts | 121° |
| 2026-05-06 13:51 | 48.09629 | 15.25600 | 40766 ft | 499 kts | 121° |
| 2026-05-06 13:52 | 48.06454 | 15.34821 | 40769 ft | 499 kts | 121° |
| 2026-05-06 13:52 | 48.03272 | 15.44034 | 40776 ft | 499 kts | 121° |
| 2026-05-06 13:53 | 48.00086 | 15.53233 | 40778 ft | 499 kts | 121° |
| 2026-05-06 13:53 | 47.96892 | 15.62414 | 40776 ft | 498 kts | 122° |
| 2026-05-06 13:54 | 47.93692 | 15.71580 | 40789 ft | 498 kts | 121° |
| 2026-05-06 13:54 | 47.90515 | 15.80756 | 40795 ft | 498 kts | 121° |
| 2026-05-06 13:55 | 47.87339 | 15.89938 | 40800 ft | 499 kts | 121° |
| 2026-05-06 13:55 | 47.84139 | 15.99087 | 40805 ft | 498 kts | 121° |
| 2026-05-06 13:56 | 47.80920 | 16.08200 | 40807 ft | 497 kts | 121° |
| 2026-05-06 13:56 | 47.77688 | 16.17293 | 40808 ft | 497 kts | 121° |
| 2026-05-06 13:57 | 47.74450 | 16.26365 | 40811 ft | 497 kts | 121° |
| 2026-05-06 13:57 | 47.71203 | 16.35438 | 40815 ft | 497 kts | 121° |
| 2026-05-06 13:58 | 47.67948 | 16.44503 | 40821 ft | 498 kts | 121° |
| 2026-05-06 13:58 | 47.64683 | 16.53568 | 40824 ft | 498 kts | 121° |
| 2026-05-06 13:59 | 47.61412 | 16.62616 | 40831 ft | 498 kts | 121° |
| 2026-05-06 13:59 | 47.58129 | 16.71667 | 40834 ft | 499 kts | 121° |
| 2026-05-06 14:00 | 47.54855 | 16.80728 | 40838 ft | 500 kts | 121° |
| 2026-05-06 14:00 | 47.51643 | 16.89865 | 40843 ft | 501 kts | 120° |
| 2026-05-06 14:01 | 47.48433 | 16.99015 | 40850 ft | 501 kts | 120° |
| 2026-05-06 14:01 | 47.45208 | 17.08135 | 40856 ft | 501 kts | 121° |
| 2026-05-06 14:02 | 47.41966 | 17.17241 | 40870 ft | 501 kts | 121° |
| 2026-05-06 14:02 | 47.38718 | 17.26326 | 40862 ft | 500 kts | 121° |
| 2026-05-06 14:03 | 47.35467 | 17.35388 | 40864 ft | 499 kts | 121° |
| 2026-05-06 14:03 | 47.32211 | 17.44434 | 40855 ft | 499 kts | 121° |
| 2026-05-06 14:04 | 47.28947 | 17.53472 | 40856 ft | 500 kts | 121° |
| 2026-05-06 14:04 | 47.25675 | 17.62503 | 40863 ft | 500 kts | 121° |
| 2026-05-06 14:05 | 47.22396 | 17.71521 | 40866 ft | 500 kts | 121° |
| 2026-05-06 14:05 | 47.19106 | 17.80538 | 40882 ft | 500 kts | 121° |
| 2026-05-06 14:06 | 47.15809 | 17.89545 | 40892 ft | 501 kts | 121° |
| 2026-05-06 14:06 | 47.12502 | 17.98550 | 40896 ft | 501 kts | 121° |
| 2026-05-06 14:07 | 47.09188 | 18.07545 | 40898 ft | 501 kts | 121° |
| 2026-05-06 14:07 | 47.05869 | 18.16521 | 40898 ft | 501 kts | 121° |
| 2026-05-06 14:08 | 47.03073 | 18.23959 | 40899 ft | 501 kts | 122° |
| 2026-05-06 14:08 | 46.99621 | 18.32822 | 40899 ft | 501 kts | 122° |
| 2026-05-06 14:09 | 46.96155 | 18.41665 | 40903 ft | 501 kts | 122° |
| 2026-05-06 14:09 | 46.92698 | 18.50506 | 40903 ft | 501 kts | 122° |
| 2026-05-06 14:10 | 46.89238 | 18.59353 | 40905 ft | 501 kts | 122° |
| 2026-05-06 14:10 | 46.85767 | 18.68206 | 40906 ft | 502 kts | 122° |
| 2026-05-06 14:11 | 46.82295 | 18.77033 | 40909 ft | 502 kts | 122° |
| 2026-05-06 14:11 | 46.78806 | 18.85869 | 40906 ft | 502 kts | 122° |
| 2026-05-06 14:12 | 46.75315 | 18.94682 | 40907 ft | 502 kts | 122° |
| 2026-05-06 14:12 | 46.71808 | 19.03509 | 40909 ft | 503 kts | 123° |
| 2026-05-06 14:13 | 46.68294 | 19.12323 | 40909 ft | 503 kts | 123° |
| 2026-05-06 14:13 | 46.64796 | 19.21069 | 40911 ft | 503 kts | 123° |
| 2026-05-06 14:14 | 46.61265 | 19.29868 | 40910 ft | 504 kts | 123° |
| 2026-05-06 14:14 | 46.57727 | 19.38659 | 40910 ft | 504 kts | 123° |
| 2026-05-06 14:15 | 46.54179 | 19.47445 | 40916 ft | 504 kts | 123° |
| 2026-05-06 14:15 | 46.50622 | 19.56226 | 40916 ft | 505 kts | 123° |
| 2026-05-06 14:16 | 46.47054 | 19.65004 | 40917 ft | 505 kts | 123° |
| 2026-05-06 14:16 | 46.43479 | 19.73774 | 40920 ft | 505 kts | 123° |
| 2026-05-06 14:17 | 46.39803 | 19.82436 | 40935 ft | 504 kts | 129° |
| 2026-05-06 14:17 | 46.35519 | 19.90464 | 40914 ft | 503 kts | 131° |
| 2026-05-06 14:18 | 46.31129 | 19.98331 | 40929 ft | 503 kts | 132° |
| 2026-05-06 14:18 | 46.26708 | 20.06177 | 40924 ft | 503 kts | 132° |
| 2026-05-06 14:19 | 46.22285 | 20.14028 | 40925 ft | 504 kts | 132° |
| 2026-05-06 14:19 | 46.17863 | 20.21875 | 40923 ft | 504 kts | 132° |
| 2026-05-06 14:20 | 46.13434 | 20.29715 | 40930 ft | 504 kts | 132° |
| 2026-05-06 14:20 | 46.08997 | 20.37549 | 40931 ft | 504 kts | 132° |
| 2026-05-06 14:21 | 46.04583 | 20.45319 | 40928 ft | 505 kts | 132° |
| 2026-05-06 14:21 | 46.00136 | 20.53125 | 40932 ft | 505 kts | 132° |
| 2026-05-06 14:22 | 45.95676 | 20.60932 | 40931 ft | 505 kts | 132° |
| 2026-05-06 14:22 | 45.91263 | 20.68636 | 40933 ft | 505 kts | 132° |
| 2026-05-06 14:23 | 45.86792 | 20.76418 | 40937 ft | 506 kts | 132° |
| 2026-05-06 14:23 | 45.82308 | 20.84201 | 40936 ft | 506 kts | 132° |
| 2026-05-06 14:24 | 45.77816 | 20.91977 | 40940 ft | 506 kts | 132° |
| 2026-05-06 14:24 | 45.73322 | 20.99734 | 40937 ft | 506 kts | 132° |
| 2026-05-06 14:25 | 45.68817 | 21.07490 | 40941 ft | 506 kts | 132° |
| 2026-05-06 14:25 | 45.64312 | 21.15224 | 40941 ft | 507 kts | 132° |
| 2026-05-06 14:26 | 45.59813 | 21.22980 | 40941 ft | 507 kts | 132° |
| 2026-05-06 14:26 | 45.55321 | 21.30749 | 40941 ft | 507 kts | 131° |
| 2026-05-06 14:27 | 45.50827 | 21.38496 | 40944 ft | 507 kts | 132° |
| 2026-05-06 14:27 | 45.46320 | 21.46233 | 40943 ft | 507 kts | 132° |
| 2026-05-06 14:28 | 45.41833 | 21.53913 | 40946 ft | 508 kts | 132° |
| 2026-05-06 14:28 | 45.37311 | 21.61630 | 40948 ft | 508 kts | 132° |
| 2026-05-06 14:29 | 45.32783 | 21.69336 | 40948 ft | 508 kts | 132° |
| 2026-05-06 14:29 | 45.28246 | 21.77036 | 40954 ft | 508 kts | 132° |
| 2026-05-06 14:30 | 45.23702 | 21.84727 | 40957 ft | 508 kts | 131° |
| 2026-05-06 14:30 | 45.19153 | 21.92407 | 40960 ft | 509 kts | 132° |
| 2026-05-06 14:31 | 45.14593 | 22.00080 | 40964 ft | 509 kts | 131° |
| 2026-05-06 14:31 | 45.10027 | 22.07748 | 40969 ft | 509 kts | 131° |
| 2026-05-06 14:32 | 45.05454 | 22.15405 | 40968 ft | 509 kts | 131° |
| 2026-05-06 14:32 | 45.00877 | 22.23049 | 40972 ft | 509 kts | 131° |
| 2026-05-06 14:33 | 44.96298 | 22.30675 | 40972 ft | 510 kts | 131° |
| 2026-05-06 14:33 | 44.91709 | 22.38298 | 40975 ft | 510 kts | 131° |
| 2026-05-06 14:34 | 44.87112 | 22.45909 | 40973 ft | 509 kts | 131° |
| 2026-05-06 14:34 | 44.82516 | 22.53500 | 40971 ft | 509 kts | 131° |
| 2026-05-06 14:35 | 44.77914 | 22.61084 | 40966 ft | 509 kts | 131° |
| 2026-05-06 14:35 | 44.73211 | 22.68521 | 40964 ft | 509 kts | 134° |
| 2026-05-06 14:36 | 44.68391 | 22.75801 | 40959 ft | 509 kts | 134° |
| 2026-05-06 14:36 | 44.63573 | 22.83078 | 40959 ft | 509 kts | 134° |
| 2026-05-06 14:37 | 44.58761 | 22.90389 | 40957 ft | 509 kts | 134° |
| 2026-05-06 14:37 | 44.53996 | 22.97635 | 40958 ft | 509 kts | 133° |
| 2026-05-06 14:38 | 44.49193 | 23.04928 | 40961 ft | 509 kts | 133° |
| 2026-05-06 14:38 | 44.44391 | 23.12195 | 40962 ft | 509 kts | 133° |
| 2026-05-06 14:39 | 44.39577 | 23.19459 | 40959 ft | 509 kts | 133° |
| 2026-05-06 14:39 | 44.34757 | 23.26714 | 40961 ft | 509 kts | 133° |
| 2026-05-06 14:40 | 44.29939 | 23.33946 | 40960 ft | 509 kts | 133° |
| 2026-05-06 14:40 | 44.25112 | 23.41174 | 40958 ft | 509 kts | 133° |
| 2026-05-06 14:41 | 44.20283 | 23.48387 | 40959 ft | 509 kts | 133° |
| 2026-05-06 14:41 | 44.15454 | 23.55581 | 40959 ft | 508 kts | 133° |
| 2026-05-06 14:42 | 44.10618 | 23.62766 | 40959 ft | 508 kts | 133° |
| 2026-05-06 14:42 | 44.05778 | 23.69938 | 40959 ft | 509 kts | 133° |
| 2026-05-06 14:43 | 44.00935 | 23.77101 | 40956 ft | 508 kts | 133° |
| 2026-05-06 14:43 | 43.96087 | 23.84250 | 40956 ft | 509 kts | 133° |
| 2026-05-06 14:44 | 43.91232 | 23.91390 | 40957 ft | 508 kts | 133° |
| 2026-05-06 14:45 | 43.83943 | 24.02078 | 40955 ft | 509 kts | 133° |
| 2026-05-06 14:45 | 43.79078 | 24.09189 | 40960 ft | 509 kts | 133° |
| 2026-05-06 14:46 | 43.74238 | 24.16244 | 40955 ft | 509 kts | 133° |
| 2026-05-06 14:46 | 43.69521 | 24.23106 | 40958 ft | 509 kts | 133° |
| 2026-05-06 14:47 | 43.66175 | 24.27883 | 40962 ft | 509 kts | 135° |
| 2026-05-06 14:47 | 43.61063 | 24.34665 | 40959 ft | 509 kts | 136° |
| 2026-05-06 14:48 | 43.55917 | 24.41372 | 40958 ft | 509 kts | 136° |
| 2026-05-06 14:48 | 43.50788 | 24.48119 | 40958 ft | 510 kts | 136° |
| 2026-05-06 14:49 | 43.45676 | 24.54880 | 40957 ft | 510 kts | 136° |
| 2026-05-06 14:49 | 43.40556 | 24.61648 | 40960 ft | 510 kts | 136° |
| 2026-05-06 14:50 | 43.35434 | 24.68401 | 40964 ft | 511 kts | 136° |
| 2026-05-06 14:50 | 43.30332 | 24.75109 | 40968 ft | 511 kts | 136° |
| 2026-05-06 14:51 | 43.25188 | 24.81852 | 40970 ft | 511 kts | 136° |
| 2026-05-06 14:51 | 43.20041 | 24.88583 | 40969 ft | 511 kts | 136° |
| 2026-05-06 14:52 | 43.14852 | 24.95352 | 40978 ft | 512 kts | 136° |
| 2026-05-06 14:52 | 43.09731 | 25.02028 | 40978 ft | 512 kts | 136° |
| 2026-05-06 14:53 | 43.04571 | 25.08737 | 40983 ft | 512 kts | 136° |
| 2026-05-06 14:53 | 42.99403 | 25.15439 | 40985 ft | 512 kts | 136° |
| 2026-05-06 14:54 | 42.94227 | 25.22134 | 40989 ft | 512 kts | 136° |
| 2026-05-06 14:54 | 42.89051 | 25.28816 | 40995 ft | 513 kts | 136° |
| 2026-05-06 14:55 | 42.83866 | 25.35492 | 40999 ft | 513 kts | 136° |
| 2026-05-06 14:55 | 42.78678 | 25.42157 | 40991 ft | 513 kts | 136° |
| 2026-05-06 14:56 | 42.73481 | 25.48814 | 40998 ft | 513 kts | 136° |
| 2026-05-06 14:56 | 42.68274 | 25.55468 | 41002 ft | 514 kts | 136° |
| 2026-05-06 14:57 | 42.63063 | 25.62114 | 40999 ft | 514 kts | 136° |
| 2026-05-06 14:57 | 42.57851 | 25.68749 | 41003 ft | 514 kts | 136° |
| 2026-05-06 14:58 | 42.53514 | 25.74256 | 41003 ft | 514 kts | 136° |
| 2026-05-06 14:58 | 42.48258 | 25.80915 | 41002 ft | 514 kts | 136° |
| 2026-05-06 14:59 | 42.43031 | 25.87519 | 40998 ft | 514 kts | 136° |
| 2026-05-06 14:59 | 42.37804 | 25.94108 | 40998 ft | 514 kts | 136° |
| 2026-05-06 15:00 | 42.32560 | 26.00701 | 40998 ft | 514 kts | 136° |
| 2026-05-06 15:00 | 42.27376 | 26.07264 | 40996 ft | 514 kts | 134° |
| 2026-05-06 15:01 | 42.23080 | 26.14920 | 41001 ft | 512 kts | 120° |
| 2026-05-06 15:01 | 42.19542 | 26.23244 | 41001 ft | 512 kts | 118° |
| 2026-05-06 15:01 | 42.17795 | 26.27422 | 40860 ft | 508 kts | 118° |
| 2026-05-06 15:02 | 42.16060 | 26.31568 | 40152 ft | 510 kts | 118° |
| 2026-05-06 15:02 | 42.14308 | 26.35754 | 39325 ft | 515 kts | 117° |
| 2026-05-06 15:02 | 42.12541 | 26.39972 | 38513 ft | 519 kts | 117° |
| 2026-05-06 15:02 | 42.10759 | 26.44221 | 37554 ft | 522 kts | 117° |
| 2026-05-06 15:03 | 42.08966 | 26.48489 | 36635 ft | 525 kts | 117° |
| 2026-05-06 15:03 | 42.07165 | 26.52772 | 35822 ft | 526 kts | 117° |
| 2026-05-06 15:03 | 42.05361 | 26.57056 | 35053 ft | 527 kts | 117° |
| 2026-05-06 15:03 | 42.03547 | 26.61355 | 34230 ft | 529 kts | 116° |
| 2026-05-06 15:04 | 42.01730 | 26.65667 | 33277 ft | 531 kts | 116° |
| 2026-05-06 15:04 | 41.99906 | 26.70000 | 32368 ft | 532 kts | 116° |
| 2026-05-06 15:04 | 41.98082 | 26.74323 | 31453 ft | 532 kts | 116° |
| 2026-05-06 15:04 | 41.96246 | 26.78650 | 30654 ft | 531 kts | 117° |
| 2026-05-06 15:05 | 41.94346 | 26.82902 | 30199 ft | 531 kts | 118° |
| 2026-05-06 15:05 | 41.92410 | 26.87132 | 29631 ft | 531 kts | 119° |
| 2026-05-06 15:05 | 41.90489 | 26.91324 | 29278 ft | 521 kts | 118° |
| 2026-05-06 15:05 | 41.88617 | 26.95416 | 28986 ft | 507 kts | 118° |
| 2026-05-06 15:06 | 41.86796 | 26.99403 | 28680 ft | 496 kts | 118° |
| 2026-05-06 15:06 | 41.85019 | 27.03296 | 28393 ft | 484 kts | 118° |
| 2026-05-06 15:06 | 41.83278 | 27.07110 | 28117 ft | 473 kts | 118° |
| 2026-05-06 15:06 | 41.81576 | 27.10835 | 27766 ft | 464 kts | 118° |
| 2026-05-06 15:07 | 41.79883 | 27.14478 | 27327 ft | 459 kts | 120° |
| 2026-05-06 15:07 | 41.78006 | 27.17931 | 26977 ft | 459 kts | 126° |
| 2026-05-06 15:07 | 41.75920 | 27.21299 | 26883 ft | 480 kts | 128° |
| 2026-05-06 15:07 | 41.73702 | 27.24764 | 26826 ft | 500 kts | 128° |
| 2026-05-06 15:08 | 41.71385 | 27.28324 | 26774 ft | 508 kts | 129° |
| 2026-05-06 15:08 | 41.69075 | 27.31842 | 26251 ft | 501 kts | 129° |
| 2026-05-06 15:08 | 41.66775 | 27.35329 | 25478 ft | 499 kts | 129° |
| 2026-05-06 15:08 | 41.64485 | 27.38799 | 24793 ft | 496 kts | 129° |
| 2026-05-06 15:09 | 41.62215 | 27.42238 | 24158 ft | 491 kts | 129° |
| 2026-05-06 15:09 | 41.59964 | 27.45646 | 23504 ft | 487 kts | 129° |
| 2026-05-06 15:09 | 41.57736 | 27.49017 | 22784 ft | 481 kts | 129° |
| 2026-05-06 15:09 | 41.55531 | 27.52349 | 22085 ft | 475 kts | 129° |
| 2026-05-06 15:10 | 41.53355 | 27.55635 | 21415 ft | 469 kts | 129° |
| 2026-05-06 15:10 | 41.51205 | 27.58877 | 20766 ft | 463 kts | 129° |
| 2026-05-06 15:10 | 41.49082 | 27.62076 | 20107 ft | 458 kts | 129° |
| 2026-05-06 15:10 | 41.46980 | 27.65240 | 19460 ft | 453 kts | 129° |
| 2026-05-06 15:11 | 41.44933 | 27.68317 | 18848 ft | 447 kts | 129° |
| 2026-05-06 15:11 | 41.42854 | 27.71440 | 18197 ft | 442 kts | 130° |
| 2026-05-06 15:11 | 41.40849 | 27.74447 | 17467 ft | 437 kts | 130° |
| 2026-05-06 15:11 | 41.38817 | 27.77491 | 16750 ft | 433 kts | 130° |
| 2026-05-06 15:12 | 41.36825 | 27.80473 | 16064 ft | 428 kts | 130° |
| 2026-05-06 15:12 | 41.34861 | 27.83410 | 15393 ft | 423 kts | 130° |
| 2026-05-06 15:12 | 41.32913 | 27.86322 | 14718 ft | 418 kts | 130° |
| 2026-05-06 15:12 | 41.31014 | 27.89158 | 14059 ft | 414 kts | 130° |
| 2026-05-06 15:13 | 41.29082 | 27.92040 | 13318 ft | 410 kts | 130° |
| 2026-05-06 15:13 | 41.27191 | 27.94857 | 12540 ft | 407 kts | 130° |
| 2026-05-06 15:13 | 41.25335 | 27.97617 | 11796 ft | 404 kts | 130° |
| 2026-05-06 15:13 | 41.23447 | 28.00425 | 11040 ft | 400 kts | 130° |
| 2026-05-06 15:14 | 41.21600 | 28.03168 | 10315 ft | 398 kts | 129° |
| 2026-05-06 15:14 | 41.19764 | 28.05891 | 9655 ft | 392 kts | 129° |
| 2026-05-06 15:14 | 41.17979 | 28.08540 | 9305 ft | 378 kts | 129° |
| 2026-05-06 15:14 | 41.16264 | 28.11086 | 9043 ft | 363 kts | 129° |
| 2026-05-06 15:15 | 41.14610 | 28.13538 | 8770 ft | 349 kts | 129° |
| 2026-05-06 15:15 | 41.13023 | 28.15889 | 8531 ft | 336 kts | 129° |
| 2026-05-06 15:15 | 41.11501 | 28.18155 | 8305 ft | 323 kts | 129° |
| 2026-05-06 15:15 | 41.10028 | 28.20345 | 8103 ft | 312 kts | 129° |
| 2026-05-06 15:16 | 41.08626 | 28.22425 | 7911 ft | 302 kts | 129° |
| 2026-05-06 15:16 | 41.07231 | 28.24489 | 7753 ft | 291 kts | 129° |
| 2026-05-06 15:16 | 41.06702 | 28.25268 | 7700 ft | 287 kts | 129° |
| 2026-05-06 15:17 | 41.05382 | 28.27210 | 7531 ft | 278 kts | 129° |
| 2026-05-06 15:17 | 41.04109 | 28.29089 | 7363 ft | 271 kts | 129° |
| 2026-05-06 15:17 | 41.02861 | 28.30932 | 7099 ft | 267 kts | 129° |
| 2026-05-06 15:17 | 41.01628 | 28.32750 | 6827 ft | 264 kts | 129° |
| 2026-05-06 15:18 | 41.00404 | 28.34553 | 6519 ft | 263 kts | 130° |
| 2026-05-06 15:18 | 40.99185 | 28.36347 | 6240 ft | 261 kts | 130° |
| 2026-05-06 15:18 | 40.97986 | 28.38131 | 5946 ft | 258 kts | 128° |
| 2026-05-06 15:18 | 40.96963 | 28.40060 | 5662 ft | 255 kts | 120° |
| 2026-05-06 15:19 | 40.96065 | 28.42066 | 5367 ft | 252 kts | 118° |
| 2026-05-06 15:19 | 40.95198 | 28.44073 | 5084 ft | 250 kts | 118° |
| 2026-05-06 15:19 | 40.94347 | 28.46066 | 4993 ft | 249 kts | 118° |
| 2026-05-06 15:19 | 40.93500 | 28.48068 | 4988 ft | 249 kts | 117° |
| 2026-05-06 15:20 | 40.92656 | 28.50068 | 4987 ft | 249 kts | 117° |
| 2026-05-06 15:20 | 40.91810 | 28.52059 | 4988 ft | 249 kts | 117° |
| 2026-05-06 15:20 | 40.90968 | 28.54058 | 4988 ft | 249 kts | 115° |
| 2026-05-06 15:20 | 40.90425 | 28.56299 | 4994 ft | 263 kts | 95° |
| 2026-05-06 15:21 | 40.90610 | 28.58593 | 4984 ft | 242 kts | 65° |
| 2026-05-06 15:21 | 40.91367 | 28.60493 | 4986 ft | 229 kts | 55° |
| 2026-05-06 15:21 | 40.92216 | 28.62257 | 4991 ft | 227 kts | 54° |
| 2026-05-06 15:21 | 40.93074 | 28.64006 | 4990 ft | 227 kts | 54° |
| 2026-05-06 15:22 | 40.93930 | 28.65760 | 4994 ft | 227 kts | 54° |
| 2026-05-06 15:22 | 40.94783 | 28.67511 | 4994 ft | 227 kts | 53° |
| 2026-05-06 15:22 | 40.95639 | 28.69263 | 4994 ft | 227 kts | 53° |
| 2026-05-06 15:22 | 40.96496 | 28.71010 | 4992 ft | 226 kts | 53° |
| 2026-05-06 15:23 | 40.97494 | 28.72576 | 4994 ft | 221 kts | 30° |
| 2026-05-06 15:23 | 40.98891 | 28.73203 | 4994 ft | 206 kts | 5° |
| 2026-05-06 15:23 | 41.00262 | 28.73288 | 5004 ft | 189 kts | 357° |
| 2026-05-06 15:23 | 41.01540 | 28.73258 | 5010 ft | 181 kts | 356° |
| 2026-05-06 15:24 | 41.02801 | 28.73226 | 4948 ft | 181 kts | 356° |
| 2026-05-06 15:24 | 41.04043 | 28.73197 | 4763 ft | 181 kts | 356° |
| 2026-05-06 15:24 | 41.05262 | 28.73175 | 4507 ft | 180 kts | 356° |
| 2026-05-06 15:24 | 41.06535 | 28.73152 | 4220 ft | 182 kts | 356° |
| 2026-05-06 15:25 | 41.07786 | 28.73126 | 3953 ft | 182 kts | 356° |
| 2026-05-06 15:25 | 41.09056 | 28.73102 | 3697 ft | 184 kts | 357° |
| 2026-05-06 15:25 | 41.10337 | 28.73086 | 3450 ft | 185 kts | 358° |
| 2026-05-06 15:25 | 41.11622 | 28.73066 | 3193 ft | 183 kts | 356° |
| 2026-05-06 15:26 | 41.12878 | 28.73029 | 2945 ft | 174 kts | 357° |
| 2026-05-06 15:26 | 41.14033 | 28.73013 | 2725 ft | 159 kts | 358° |
| 2026-05-06 15:26 | 41.15105 | 28.72992 | 2515 ft | 148 kts | 358° |
| 2026-05-06 15:26 | 41.16100 | 28.72969 | 2319 ft | 138 kts | 358° |
| 2026-05-06 15:27 | 41.17039 | 28.72952 | 2144 ft | 133 kts | 359° |
| 2026-05-06 15:27 | 41.17963 | 28.72934 | 1970 ft | 133 kts | 359° |
| 2026-05-06 15:27 | 41.18886 | 28.72916 | 1792 ft | 133 kts | 359° |
| 2026-05-06 15:27 | 41.19807 | 28.72899 | 1611 ft | 132 kts | 360° |
| 2026-05-06 15:28 | 41.20724 | 28.72881 | 1435 ft | 131 kts | 359° |
| 2026-05-06 15:28 | 41.21634 | 28.72863 | 1260 ft | 130 kts | 0° |
| 2026-05-06 15:28 | 41.22536 | 28.72843 | 1094 ft | 128 kts | 0° |
| 2026-05-06 15:28 | 41.23422 | 28.72788 | 926 ft | 127 kts | 1° |
| 2026-05-06 15:29 | 41.24307 | 28.72779 | 743 ft | 127 kts | 4° |
| 2026-05-06 15:29 | 41.25192 | 28.72768 | 576 ft | 127 kts | 3° |
| 2026-05-06 15:29 | 41.26075 | 28.72756 | 390 ft | 127 kts | 3° |
| 2026-05-06 15:29 | 41.26914 | 28.72761 | 313 ft | 103 kts | 1° |
| 2026-05-06 15:30 | 41.27475 | 28.72751 | 294 ft | 58 kts | 359° |
| 2026-05-06 15:30 | 41.27757 | 28.72746 | 287 ft | 32 kts | 359° |
| 2026-05-06 15:30 | 41.27917 | 28.72760 | 287 ft | 23 kts | 13° |
| 2026-05-06 15:30 | 41.28036 | 28.72817 | 285 ft | 15 kts | 26° |
| 2026-05-06 15:31 | 41.28123 | 28.72885 | 284 ft | 10 kts | 47° |
| 2026-05-06 15:31 | 41.28111 | 28.72957 | 284 ft | 9 kts | 148° |
| 2026-05-06 15:31 | 41.28048 | 28.72969 | 285 ft | 10 kts | 183° |
| 2026-05-06 15:32 | 41.27901 | 28.72973 | 294 ft | 10 kts | 175° |
| 2026-05-06 15:32 | 41.27843 | 28.72971 | 295 ft | 8 kts | 179° |
| 2026-05-06 15:32 | 41.27779 | 28.72972 | 295 ft | 10 kts | 179° |
| 2026-05-06 15:32 | 41.27706 | 28.72973 | 297 ft | 11 kts | 179° |
| 2026-05-06 15:33 | 41.27626 | 28.72975 | 302 ft | 12 kts | 179° |
| 2026-05-06 15:33 | 41.27537 | 28.72977 | 303 ft | 14 kts | 179° |
| 2026-05-06 15:33 | 41.27437 | 28.72979 | 307 ft | 15 kts | 179° |
| 2026-05-06 15:33 | 41.27332 | 28.72981 | 308 ft | 15 kts | 179° |
| 2026-05-06 15:34 | 41.27226 | 28.72983 | 312 ft | 16 kts | 179° |
| 2026-05-06 15:34 | 41.27114 | 28.72985 | 312 ft | 17 kts | 179° |
| 2026-05-06 15:34 | 41.27013 | 28.72987 | 314 ft | 10 kts | 179° |
| 2026-05-06 15:34 | 41.26957 | 28.73031 | 315 ft | 10 kts | 114° |
| 2026-05-06 15:35 | 41.26954 | 28.73128 | 314 ft | 12 kts | 89° |
| 2026-05-06 15:35 | 41.26955 | 28.73233 | 317 ft | 11 kts | 89° |
| 2026-05-06 15:35 | 41.26957 | 28.73344 | 318 ft | 13 kts | 89° |
| 2026-05-06 15:35 | 41.26958 | 28.73481 | 318 ft | 16 kts | 89° |
| 2026-05-06 15:36 | 41.26960 | 28.73643 | 318 ft | 19 kts | 89° |
| 2026-05-06 15:36 | 41.26961 | 28.73774 | 318 ft | 11 kts | 89° |
| 2026-05-06 15:36 | 41.26944 | 28.73857 | 319 ft | 9 kts | 143° |
| 2026-05-06 15:36 | 41.26881 | 28.73870 | 320 ft | 11 kts | 178° |
| 2026-05-06 15:37 | 41.26811 | 28.73872 | 320 ft | 7 kts | 179° |
| 2026-05-06 15:37 | 41.26750 | 28.73873 | 320 ft | 11 kts | 179° |
| 2026-05-06 15:37 | 41.26677 | 28.73874 | 320 ft | 10 kts | 179° |
| 2026-05-06 15:37 | 41.26612 | 28.73873 | 320 ft | 8 kts | 187° |
| 2026-05-06 15:38 | 41.26578 | 28.73841 | 320 ft | 5 kts | 244° |
| 2026-05-06 15:38 | 41.26574 | 28.73795 | 320 ft | 0 kts | 263° |
| 2026-05-06 15:38 | 41.26573 | 28.73794 | 320 ft | 1 kts | 263° |
| 2026-05-06 15:38 | 41.26574 | 28.73783 | 320 ft | 2 kts | 271° |
| 2026-05-06 15:39 | 41.26574 | 28.73765 | 320 ft | 0 kts | 270° |
| 2026-05-06 15:39 | 41.26574 | 28.73761 | 320 ft | 0 kts | 269° |